sensor_id;sensor_type;location;lat;lon;timestamp;P1;durP1;ratioP1;P2;durP2;ratioP2
58992;SDS011;44782;0.000;0.000;2023-11-18T00:01:55;6.90;;;6.30;;
58992;SDS011;44782;0.000;0.000;2023-11-18T00:04:11;6.80;;;6.20;;
58992;SDS011;44782;0.000;0.000;2023-11-18T00:06:33;7.07;;;6.37;;
58992;SDS011;44782;0.000;0.000;2023-11-18T00:08:49;7.07;;;6.33;;
58992;SDS011;44782;0.000;0.000;2023-11-18T00:11:04;7.20;;;6.60;;
58992;SDS011;44782;0.000;0.000;2023-11-18T00:13:20;6.53;;;6.03;;
58992;SDS011;44782;0.000;0.000;2023-11-18T00:15:36;6.57;;;6.07;;
58992;SDS011;44782;0.000;0.000;2023-11-18T00:17:52;6.50;;;6.00;;
58992;SDS011;44782;0.000;0.000;2023-11-18T00:20:08;6.37;;;5.77;;
58992;SDS011;44782;0.000;0.000;2023-11-18T00:22:24;7.27;;;6.57;;
58992;SDS011;44782;0.000;0.000;2023-11-18T00:24:40;6.70;;;6.10;;
58992;SDS011;44782;0.000;0.000;2023-11-18T00:26:55;6.90;;;6.20;;
58992;SDS011;44782;0.000;0.000;2023-11-18T00:29:11;6.50;;;5.90;;
58992;SDS011;44782;0.000;0.000;2023-11-18T00:31:26;6.57;;;5.83;;
58992;SDS011;44782;0.000;0.000;2023-11-18T00:33:42;6.40;;;5.80;;
58992;SDS011;44782;0.000;0.000;2023-11-18T00:35:58;6.27;;;5.67;;
58992;SDS011;44782;0.000;0.000;2023-11-18T00:38:15;6.60;;;6.00;;
58992;SDS011;44782;0.000;0.000;2023-11-18T00:40:31;6.60;;;6.00;;
58992;SDS011;44782;0.000;0.000;2023-11-18T00:42:46;6.33;;;5.73;;
58992;SDS011;44782;0.000;0.000;2023-11-18T00:45:02;6.40;;;5.80;;
58992;SDS011;44782;0.000;0.000;2023-11-18T00:47:19;5.97;;;5.47;;
58992;SDS011;44782;0.000;0.000;2023-11-18T00:49:35;6.57;;;5.90;;
58992;SDS011;44782;0.000;0.000;2023-11-18T00:51:51;5.93;;;5.43;;
58992;SDS011;44782;0.000;0.000;2023-11-18T00:54:06;6.73;;;5.50;;
58992;SDS011;44782;0.000;0.000;2023-11-18T00:56:22;6.03;;;5.43;;
58992;SDS011;44782;0.000;0.000;2023-11-18T00:58:38;6.27;;;5.67;;
58992;SDS011;44782;0.000;0.000;2023-11-18T01:00:55;6.20;;;5.60;;
58992;SDS011;44782;0.000;0.000;2023-11-18T01:03:10;5.57;;;5.07;;
58992;SDS011;44782;0.000;0.000;2023-11-18T01:05:26;5.83;;;5.33;;
58992;SDS011;44782;0.000;0.000;2023-11-18T01:07:42;6.40;;;5.67;;
58992;SDS011;44782;0.000;0.000;2023-11-18T01:09:58;6.30;;;5.70;;
58992;SDS011;44782;0.000;0.000;2023-11-18T01:12:13;5.50;;;5.00;;
58992;SDS011;44782;0.000;0.000;2023-11-18T01:14:29;5.37;;;4.83;;
58992;SDS011;44782;0.000;0.000;2023-11-18T01:16:45;6.07;;;5.50;;
58992;SDS011;44782;0.000;0.000;2023-11-18T01:19:00;5.27;;;4.77;;
58992;SDS011;44782;0.000;0.000;2023-11-18T01:21:16;5.93;;;5.33;;
58992;SDS011;44782;0.000;0.000;2023-11-18T01:23:32;5.57;;;5.17;;
58992;SDS011;44782;0.000;0.000;2023-11-18T01:25:48;5.70;;;5.20;;
58992;SDS011;44782;0.000;0.000;2023-11-18T01:28:06;5.83;;;5.23;;
58992;SDS011;44782;0.000;0.000;2023-11-18T01:30:21;5.77;;;5.27;;
58992;SDS011;44782;0.000;0.000;2023-11-18T01:32:38;5.83;;;5.30;;
58992;SDS011;44782;0.000;0.000;2023-11-18T01:34:57;5.67;;;5.17;;
58992;SDS011;44782;0.000;0.000;2023-11-18T01:37:12;5.93;;;5.37;;
58992;SDS011;44782;0.000;0.000;2023-11-18T01:39:29;5.57;;;5.03;;
58992;SDS011;44782;0.000;0.000;2023-11-18T01:41:46;5.63;;;5.13;;
58992;SDS011;44782;0.000;0.000;2023-11-18T01:44:02;5.90;;;5.40;;
58992;SDS011;44782;0.000;0.000;2023-11-18T01:46:19;5.63;;;5.13;;
58992;SDS011;44782;0.000;0.000;2023-11-18T01:48:37;5.63;;;5.10;;
58992;SDS011;44782;0.000;0.000;2023-11-18T01:50:53;5.80;;;5.30;;
58992;SDS011;44782;0.000;0.000;2023-11-18T01:53:12;6.23;;;5.63;;
58992;SDS011;44782;0.000;0.000;2023-11-18T01:55:32;5.80;;;5.20;;
58992;SDS011;44782;0.000;0.000;2023-11-18T01:57:49;6.00;;;5.50;;
58992;SDS011;44782;0.000;0.000;2023-11-18T02:00:06;5.87;;;5.33;;
58992;SDS011;44782;0.000;0.000;2023-11-18T02:02:22;5.73;;;5.20;;
58992;SDS011;44782;0.000;0.000;2023-11-18T02:04:38;5.70;;;5.20;;
58992;SDS011;44782;0.000;0.000;2023-11-18T02:06:54;5.43;;;4.93;;
58992;SDS011;44782;0.000;0.000;2023-11-18T02:09:11;5.97;;;5.47;;
58992;SDS011;44782;0.000;0.000;2023-11-18T02:11:28;5.70;;;5.10;;
58992;SDS011;44782;0.000;0.000;2023-11-18T02:13:49;6.13;;;5.60;;
58992;SDS011;44782;0.000;0.000;2023-11-18T02:16:08;5.70;;;5.20;;
58992;SDS011;44782;0.000;0.000;2023-11-18T02:18:25;5.63;;;5.13;;
58992;SDS011;44782;0.000;0.000;2023-11-18T02:20:41;5.80;;;5.30;;
58992;SDS011;44782;0.000;0.000;2023-11-18T02:22:58;6.00;;;5.40;;
58992;SDS011;44782;0.000;0.000;2023-11-18T02:25:16;5.73;;;5.23;;
58992;SDS011;44782;0.000;0.000;2023-11-18T02:27:33;5.73;;;5.20;;
58992;SDS011;44782;0.000;0.000;2023-11-18T02:29:49;6.03;;;5.50;;
58992;SDS011;44782;0.000;0.000;2023-11-18T02:32:17;5.60;;;5.10;;
58992;SDS011;44782;0.000;0.000;2023-11-18T02:34:40;5.73;;;5.13;;
58992;SDS011;44782;0.000;0.000;2023-11-18T02:37:02;5.57;;;5.07;;
58992;SDS011;44782;0.000;0.000;2023-11-18T02:39:22;5.63;;;5.13;;
58992;SDS011;44782;0.000;0.000;2023-11-18T02:41:48;5.20;;;4.77;;
58992;SDS011;44782;0.000;0.000;2023-11-18T02:44:07;5.20;;;4.80;;
58992;SDS011;44782;0.000;0.000;2023-11-18T02:46:25;5.80;;;5.20;;
58992;SDS011;44782;0.000;0.000;2023-11-18T02:48:43;5.60;;;5.10;;
58992;SDS011;44782;0.000;0.000;2023-11-18T02:50:59;6.30;;;5.23;;
58992;SDS011;44782;0.000;0.000;2023-11-18T02:53:15;5.87;;;5.37;;
58992;SDS011;44782;0.000;0.000;2023-11-18T02:55:30;5.63;;;5.13;;
58992;SDS011;44782;0.000;0.000;2023-11-18T02:57:46;5.60;;;5.10;;
58992;SDS011;44782;0.000;0.000;2023-11-18T03:00:02;5.80;;;5.30;;
58992;SDS011;44782;0.000;0.000;2023-11-18T03:02:19;5.80;;;5.30;;
58992;SDS011;44782;0.000;0.000;2023-11-18T03:04:36;5.67;;;5.17;;
58992;SDS011;44782;0.000;0.000;2023-11-18T03:06:51;5.60;;;5.10;;
58992;SDS011;44782;0.000;0.000;2023-11-18T03:09:07;5.27;;;4.77;;
58992;SDS011;44782;0.000;0.000;2023-11-18T03:11:25;5.50;;;5.00;;
58992;SDS011;44782;0.000;0.000;2023-11-18T03:13:42;5.73;;;5.23;;
58992;SDS011;44782;0.000;0.000;2023-11-18T03:15:58;5.20;;;4.70;;
58992;SDS011;44782;0.000;0.000;2023-11-18T03:18:14;4.93;;;4.53;;
58992;SDS011;44782;0.000;0.000;2023-11-18T03:20:30;5.30;;;4.80;;
58992;SDS011;44782;0.000;0.000;2023-11-18T03:22:46;5.50;;;5.00;;
58992;SDS011;44782;0.000;0.000;2023-11-18T03:25:02;5.90;;;5.20;;
58992;SDS011;44782;0.000;0.000;2023-11-18T03:27:20;5.23;;;4.73;;
58992;SDS011;44782;0.000;0.000;2023-11-18T03:29:35;5.27;;;4.77;;
58992;SDS011;44782;0.000;0.000;2023-11-18T03:31:51;5.07;;;4.60;;
58992;SDS011;44782;0.000;0.000;2023-11-18T03:34:06;5.13;;;4.70;;
58992;SDS011;44782;0.000;0.000;2023-11-18T03:36:22;4.77;;;4.37;;
58992;SDS011;44782;0.000;0.000;2023-11-18T03:38:38;5.00;;;4.60;;
58992;SDS011;44782;0.000;0.000;2023-11-18T03:40:53;4.90;;;4.50;;
58992;SDS011;44782;0.000;0.000;2023-11-18T03:43:09;5.23;;;4.73;;
58992;SDS011;44782;0.000;0.000;2023-11-18T03:45:26;5.40;;;4.90;;
58992;SDS011;44782;0.000;0.000;2023-11-18T03:47:42;4.60;;;4.20;;
58992;SDS011;44782;0.000;0.000;2023-11-18T03:49:57;4.70;;;4.30;;
58992;SDS011;44782;0.000;0.000;2023-11-18T03:52:13;4.93;;;4.43;;
58992;SDS011;44782;0.000;0.000;2023-11-18T03:54:29;5.30;;;4.80;;
58992;SDS011;44782;0.000;0.000;2023-11-18T03:56:45;5.00;;;4.60;;
58992;SDS011;44782;0.000;0.000;2023-11-18T03:59:00;4.97;;;4.40;;
58992;SDS011;44782;0.000;0.000;2023-11-18T04:01:23;5.13;;;4.63;;
58992;SDS011;44782;0.000;0.000;2023-11-18T04:03:42;4.47;;;4.07;;
58992;SDS011;44782;0.000;0.000;2023-11-18T04:05:58;4.20;;;3.80;;
58992;SDS011;44782;0.000;0.000;2023-11-18T04:08:13;5.13;;;4.00;;
58992;SDS011;44782;0.000;0.000;2023-11-18T04:10:29;4.63;;;4.20;;
58992;SDS011;44782;0.000;0.000;2023-11-18T04:12:44;4.57;;;3.93;;
58992;SDS011;44782;0.000;0.000;2023-11-18T04:15:03;4.10;;;3.70;;
58992;SDS011;44782;0.000;0.000;2023-11-18T04:17:22;4.23;;;3.83;;
58992;SDS011;44782;0.000;0.000;2023-11-18T04:19:38;4.30;;;3.90;;
58992;SDS011;44782;0.000;0.000;2023-11-18T04:21:54;4.00;;;3.70;;
58992;SDS011;44782;0.000;0.000;2023-11-18T04:24:10;4.00;;;3.60;;
58992;SDS011;44782;0.000;0.000;2023-11-18T04:26:26;4.30;;;3.90;;
58992;SDS011;44782;0.000;0.000;2023-11-18T04:28:41;3.93;;;3.60;;
58992;SDS011;44782;0.000;0.000;2023-11-18T04:30:57;4.30;;;3.90;;
58992;SDS011;44782;0.000;0.000;2023-11-18T04:33:12;4.10;;;3.70;;
58992;SDS011;44782;0.000;0.000;2023-11-18T04:35:29;3.80;;;3.50;;
58992;SDS011;44782;0.000;0.000;2023-11-18T04:37:45;4.30;;;3.90;;
58992;SDS011;44782;0.000;0.000;2023-11-18T04:40:01;3.63;;;3.33;;
58992;SDS011;44782;0.000;0.000;2023-11-18T04:42:17;3.87;;;3.57;;
58992;SDS011;44782;0.000;0.000;2023-11-18T04:44:33;3.90;;;3.60;;
58992;SDS011;44782;0.000;0.000;2023-11-18T04:46:49;3.60;;;3.30;;
58992;SDS011;44782;0.000;0.000;2023-11-18T04:49:05;4.03;;;3.30;;
58992;SDS011;44782;0.000;0.000;2023-11-18T04:51:20;4.07;;;3.67;;
58992;SDS011;44782;0.000;0.000;2023-11-18T04:53:37;3.60;;;3.30;;
58992;SDS011;44782;0.000;0.000;2023-11-18T04:55:54;3.97;;;3.67;;
58992;SDS011;44782;0.000;0.000;2023-11-18T04:58:09;3.40;;;3.10;;
58992;SDS011;44782;0.000;0.000;2023-11-18T05:00:25;3.50;;;3.20;;
58992;SDS011;44782;0.000;0.000;2023-11-18T05:02:41;3.60;;;3.30;;
58992;SDS011;44782;0.000;0.000;2023-11-18T05:04:57;3.67;;;3.37;;
58992;SDS011;44782;0.000;0.000;2023-11-18T05:07:13;3.60;;;3.30;;
58992;SDS011;44782;0.000;0.000;2023-11-18T05:09:28;3.57;;;3.27;;
58992;SDS011;44782;0.000;0.000;2023-11-18T05:11:44;3.53;;;3.23;;
58992;SDS011;44782;0.000;0.000;2023-11-18T05:14:00;3.20;;;3.00;;
58992;SDS011;44782;0.000;0.000;2023-11-18T05:16:15;3.67;;;3.23;;
58992;SDS011;44782;0.000;0.000;2023-11-18T05:18:31;3.30;;;3.00;;
58992;SDS011;44782;0.000;0.000;2023-11-18T05:20:50;3.57;;;3.27;;
58992;SDS011;44782;0.000;0.000;2023-11-18T05:23:06;3.07;;;2.83;;
58992;SDS011;44782;0.000;0.000;2023-11-18T05:25:24;3.23;;;2.93;;
58992;SDS011;44782;0.000;0.000;2023-11-18T05:27:40;3.30;;;3.10;;
58992;SDS011;44782;0.000;0.000;2023-11-18T05:29:56;3.47;;;3.17;;
58992;SDS011;44782;0.000;0.000;2023-11-18T05:32:14;3.30;;;3.00;;
58992;SDS011;44782;0.000;0.000;2023-11-18T05:34:29;3.23;;;3.00;;
58992;SDS011;44782;0.000;0.000;2023-11-18T05:36:45;3.13;;;2.90;;
58992;SDS011;44782;0.000;0.000;2023-11-18T05:39:01;3.37;;;3.07;;
58992;SDS011;44782;0.000;0.000;2023-11-18T05:41:18;3.33;;;3.03;;
58992;SDS011;44782;0.000;0.000;2023-11-18T05:43:42;3.23;;;2.90;;
58992;SDS011;44782;0.000;0.000;2023-11-18T05:46:06;3.10;;;2.80;;
58992;SDS011;44782;0.000;0.000;2023-11-18T05:48:42;3.10;;;2.80;;
58992;SDS011;44782;0.000;0.000;2023-11-18T05:50:59;3.27;;;2.97;;
58992;SDS011;44782;0.000;0.000;2023-11-18T05:53:14;3.50;;;3.20;;
58992;SDS011;44782;0.000;0.000;2023-11-18T05:55:30;2.93;;;2.73;;
58992;SDS011;44782;0.000;0.000;2023-11-18T05:57:45;2.73;;;2.53;;
58992;SDS011;44782;0.000;0.000;2023-11-18T06:00:02;3.10;;;2.80;;
58992;SDS011;44782;0.000;0.000;2023-11-18T06:02:20;2.97;;;2.77;;
58992;SDS011;44782;0.000;0.000;2023-11-18T06:04:36;3.00;;;2.80;;
58992;SDS011;44782;0.000;0.000;2023-11-18T06:06:52;2.80;;;2.60;;
58992;SDS011;44782;0.000;0.000;2023-11-18T06:09:07;2.90;;;2.70;;
58992;SDS011;44782;0.000;0.000;2023-11-18T06:11:30;2.80;;;2.60;;
58992;SDS011;44782;0.000;0.000;2023-11-18T06:13:50;3.10;;;2.80;;
58992;SDS011;44782;0.000;0.000;2023-11-18T06:16:17;2.90;;;2.70;;
58992;SDS011;44782;0.000;0.000;2023-11-18T06:18:37;3.30;;;2.93;;
58992;SDS011;44782;0.000;0.000;2023-11-18T06:20:52;2.90;;;2.60;;
58992;SDS011;44782;0.000;0.000;2023-11-18T06:23:08;2.60;;;2.40;;
58992;SDS011;44782;0.000;0.000;2023-11-18T06:25:24;2.80;;;2.60;;
58992;SDS011;44782;0.000;0.000;2023-11-18T06:27:42;2.90;;;2.60;;
58992;SDS011;44782;0.000;0.000;2023-11-18T06:30:00;2.93;;;2.63;;
58992;SDS011;44782;0.000;0.000;2023-11-18T06:32:15;2.60;;;2.40;;
58992;SDS011;44782;0.000;0.000;2023-11-18T06:34:31;2.70;;;2.50;;
58992;SDS011;44782;0.000;0.000;2023-11-18T06:36:47;2.80;;;2.60;;
58992;SDS011;44782;0.000;0.000;2023-11-18T06:39:03;2.70;;;2.50;;
58992;SDS011;44782;0.000;0.000;2023-11-18T06:41:22;2.87;;;2.50;;
58992;SDS011;44782;0.000;0.000;2023-11-18T06:43:39;2.60;;;2.40;;
58992;SDS011;44782;0.000;0.000;2023-11-18T06:46:21;2.67;;;2.47;;
58992;SDS011;44782;0.000;0.000;2023-11-18T06:48:38;2.70;;;2.50;;
58992;SDS011;44782;0.000;0.000;2023-11-18T06:50:55;2.97;;;2.77;;
58992;SDS011;44782;0.000;0.000;2023-11-18T06:53:11;2.97;;;2.67;;
58992;SDS011;44782;0.000;0.000;2023-11-18T06:55:26;2.60;;;2.40;;
58992;SDS011;44782;0.000;0.000;2023-11-18T06:57:42;2.50;;;2.30;;
58992;SDS011;44782;0.000;0.000;2023-11-18T06:59:59;2.70;;;2.50;;
58992;SDS011;44782;0.000;0.000;2023-11-18T07:02:15;2.80;;;2.60;;
58992;SDS011;44782;0.000;0.000;2023-11-18T07:04:30;2.90;;;2.60;;
58992;SDS011;44782;0.000;0.000;2023-11-18T07:06:46;2.53;;;2.33;;
58992;SDS011;44782;0.000;0.000;2023-11-18T07:09:01;2.57;;;2.37;;
58992;SDS011;44782;0.000;0.000;2023-11-18T07:11:17;2.57;;;2.37;;
58992;SDS011;44782;0.000;0.000;2023-11-18T07:13:33;2.90;;;2.70;;
58992;SDS011;44782;0.000;0.000;2023-11-18T07:15:52;2.20;;;2.00;;
58992;SDS011;44782;0.000;0.000;2023-11-18T07:18:10;2.87;;;2.33;;
58992;SDS011;44782;0.000;0.000;2023-11-18T07:20:27;2.30;;;2.10;;
58992;SDS011;44782;0.000;0.000;2023-11-18T07:22:42;2.30;;;2.10;;
58992;SDS011;44782;0.000;0.000;2023-11-18T07:24:58;2.33;;;2.13;;
58992;SDS011;44782;0.000;0.000;2023-11-18T07:27:13;2.60;;;2.40;;
58992;SDS011;44782;0.000;0.000;2023-11-18T07:29:29;2.20;;;2.10;;
58992;SDS011;44782;0.000;0.000;2023-11-18T07:31:44;2.40;;;2.20;;
58992;SDS011;44782;0.000;0.000;2023-11-18T07:34:00;2.07;;;1.80;;
58992;SDS011;44782;0.000;0.000;2023-11-18T07:36:16;2.40;;;2.20;;
58992;SDS011;44782;0.000;0.000;2023-11-18T07:38:34;2.50;;;2.30;;
58992;SDS011;44782;0.000;0.000;2023-11-18T07:40:50;2.20;;;2.00;;
58992;SDS011;44782;0.000;0.000;2023-11-18T07:43:13;2.10;;;2.00;;
58992;SDS011;44782;0.000;0.000;2023-11-18T07:45:36;2.00;;;1.90;;
58992;SDS011;44782;0.000;0.000;2023-11-18T07:47:55;2.17;;;1.97;;
58992;SDS011;44782;0.000;0.000;2023-11-18T07:50:10;2.50;;;2.30;;
58992;SDS011;44782;0.000;0.000;2023-11-18T07:52:27;2.27;;;2.07;;
58992;SDS011;44782;0.000;0.000;2023-11-18T07:54:44;2.17;;;1.97;;
58992;SDS011;44782;0.000;0.000;2023-11-18T07:56:59;2.43;;;2.23;;
58992;SDS011;44782;0.000;0.000;2023-11-18T07:59:16;2.40;;;2.03;;
58992;SDS011;44782;0.000;0.000;2023-11-18T08:01:33;2.20;;;2.00;;
58992;SDS011;44782;0.000;0.000;2023-11-18T08:03:48;2.20;;;2.00;;
58992;SDS011;44782;0.000;0.000;2023-11-18T08:06:05;2.30;;;2.10;;
58992;SDS011;44782;0.000;0.000;2023-11-18T08:08:25;2.40;;;1.73;;
58992;SDS011;44782;0.000;0.000;2023-11-18T08:10:40;2.00;;;1.90;;
58992;SDS011;44782;0.000;0.000;2023-11-18T08:12:57;1.90;;;1.80;;
58992;SDS011;44782;0.000;0.000;2023-11-18T08:15:13;1.90;;;1.80;;
58992;SDS011;44782;0.000;0.000;2023-11-18T08:17:29;2.27;;;2.07;;
58992;SDS011;44782;0.000;0.000;2023-11-18T08:19:45;2.03;;;1.90;;
58992;SDS011;44782;0.000;0.000;2023-11-18T08:22:01;1.80;;;1.70;;
58992;SDS011;44782;0.000;0.000;2023-11-18T08:24:17;1.93;;;1.83;;
58992;SDS011;44782;0.000;0.000;2023-11-18T08:26:33;2.20;;;2.00;;
58992;SDS011;44782;0.000;0.000;2023-11-18T08:28:49;2.30;;;1.90;;
58992;SDS011;44782;0.000;0.000;2023-11-18T08:31:06;1.80;;;1.70;;
58992;SDS011;44782;0.000;0.000;2023-11-18T08:33:24;1.80;;;1.70;;
58992;SDS011;44782;0.000;0.000;2023-11-18T08:35:40;1.80;;;1.70;;
58992;SDS011;44782;0.000;0.000;2023-11-18T08:37:57;2.10;;;1.90;;
58992;SDS011;44782;0.000;0.000;2023-11-18T08:40:14;1.80;;;1.70;;
58992;SDS011;44782;0.000;0.000;2023-11-18T08:42:30;2.43;;;1.70;;
58992;SDS011;44782;0.000;0.000;2023-11-18T08:44:46;2.00;;;1.80;;
58992;SDS011;44782;0.000;0.000;2023-11-18T08:47:03;2.47;;;1.63;;
58992;SDS011;44782;0.000;0.000;2023-11-18T08:49:23;2.43;;;1.70;;
58992;SDS011;44782;0.000;0.000;2023-11-18T08:51:40;2.00;;;1.80;;
58992;SDS011;44782;0.000;0.000;2023-11-18T08:53:57;1.90;;;1.70;;
58992;SDS011;44782;0.000;0.000;2023-11-18T08:56:13;1.70;;;1.60;;
58992;SDS011;44782;0.000;0.000;2023-11-18T08:58:29;1.80;;;1.70;;
58992;SDS011;44782;0.000;0.000;2023-11-18T09:00:50;1.93;;;1.70;;
58992;SDS011;44782;0.000;0.000;2023-11-18T09:03:09;1.77;;;1.63;;
58992;SDS011;44782;0.000;0.000;2023-11-18T09:05:32;2.00;;;1.80;;
58992;SDS011;44782;0.000;0.000;2023-11-18T09:07:50;1.80;;;1.70;;
58992;SDS011;44782;0.000;0.000;2023-11-18T09:10:08;1.70;;;1.60;;
58992;SDS011;44782;0.000;0.000;2023-11-18T09:12:24;1.60;;;1.50;;
58992;SDS011;44782;0.000;0.000;2023-11-18T09:14:39;1.70;;;1.60;;
58992;SDS011;44782;0.000;0.000;2023-11-18T09:16:57;2.13;;;1.93;;
58992;SDS011;44782;0.000;0.000;2023-11-18T09:19:14;4.40;;;1.87;;
58992;SDS011;44782;0.000;0.000;2023-11-18T09:21:29;4.57;;;1.70;;
58992;SDS011;44782;0.000;0.000;2023-11-18T09:23:50;1.73;;;1.60;;
58992;SDS011;44782;0.000;0.000;2023-11-18T09:26:06;2.27;;;1.90;;
58992;SDS011;44782;0.000;0.000;2023-11-18T09:28:23;2.17;;;1.90;;
58992;SDS011;44782;0.000;0.000;2023-11-18T09:30:39;3.30;;;2.07;;
58992;SDS011;44782;0.000;0.000;2023-11-18T09:33:04;3.37;;;2.23;;
58992;SDS011;44782;0.000;0.000;2023-11-18T09:35:28;2.87;;;2.00;;
58992;SDS011;44782;0.000;0.000;2023-11-18T09:37:44;4.47;;;2.50;;
58992;SDS011;44782;0.000;0.000;2023-11-18T09:40:02;4.87;;;2.63;;
58992;SDS011;44782;0.000;0.000;2023-11-18T09:42:26;4.43;;;2.87;;
58992;SDS011;44782;0.000;0.000;2023-11-18T09:44:44;3.67;;;2.83;;
58992;SDS011;44782;0.000;0.000;2023-11-18T09:47:03;5.23;;;2.87;;
58992;SDS011;44782;0.000;0.000;2023-11-18T09:49:27;5.97;;;2.70;;
58992;SDS011;44782;0.000;0.000;2023-11-18T09:51:55;5.33;;;3.27;;
58992;SDS011;44782;0.000;0.000;2023-11-18T09:57:14;6.10;;;3.50;;
58992;SDS011;44782;0.000;0.000;2023-11-18T09:59:51;4.27;;;2.93;;
58992;SDS011;44782;0.000;0.000;2023-11-18T10:02:40;5.63;;;3.10;;
58992;SDS011;44782;0.000;0.000;2023-11-18T10:04:56;4.37;;;2.90;;
58992;SDS011;44782;0.000;0.000;2023-11-18T10:07:16;4.10;;;2.87;;
58992;SDS011;44782;0.000;0.000;2023-11-18T10:09:34;5.23;;;3.13;;
58992;SDS011;44782;0.000;0.000;2023-11-18T10:11:54;4.83;;;3.20;;
58992;SDS011;44782;0.000;0.000;2023-11-18T10:14:20;4.93;;;3.20;;
58992;SDS011;44782;0.000;0.000;2023-11-18T10:16:35;4.77;;;3.27;;
58992;SDS011;44782;0.000;0.000;2023-11-18T10:18:53;6.20;;;3.37;;
58992;SDS011;44782;0.000;0.000;2023-11-18T10:21:15;5.27;;;3.30;;
58992;SDS011;44782;0.000;0.000;2023-11-18T10:23:33;5.83;;;3.27;;
58992;SDS011;44782;0.000;0.000;2023-11-18T10:25:50;7.97;;;3.47;;
58992;SDS011;44782;0.000;0.000;2023-11-18T10:28:07;7.37;;;3.50;;
58992;SDS011;44782;0.000;0.000;2023-11-18T10:30:25;6.70;;;3.47;;
58992;SDS011;44782;0.000;0.000;2023-11-18T10:32:40;6.43;;;3.57;;
58992;SDS011;44782;0.000;0.000;2023-11-18T10:34:57;4.90;;;3.30;;
58992;SDS011;44782;0.000;0.000;2023-11-18T10:37:13;5.83;;;3.47;;
58992;SDS011;44782;0.000;0.000;2023-11-18T10:39:29;5.80;;;3.67;;
58992;SDS011;44782;0.000;0.000;2023-11-18T10:41:49;5.17;;;3.43;;
58992;SDS011;44782;0.000;0.000;2023-11-18T10:44:05;6.27;;;3.63;;
58992;SDS011;44782;0.000;0.000;2023-11-18T10:46:22;6.83;;;3.47;;
58992;SDS011;44782;0.000;0.000;2023-11-18T10:48:39;6.47;;;3.70;;
58992;SDS011;44782;0.000;0.000;2023-11-18T10:50:59;6.07;;;3.40;;
58992;SDS011;44782;0.000;0.000;2023-11-18T10:53:18;6.17;;;3.30;;
58992;SDS011;44782;0.000;0.000;2023-11-18T10:55:37;4.30;;;2.77;;
58992;SDS011;44782;0.000;0.000;2023-11-18T10:57:55;6.53;;;3.00;;
58992;SDS011;44782;0.000;0.000;2023-11-18T11:00:13;6.27;;;3.30;;
58992;SDS011;44782;0.000;0.000;2023-11-18T11:02:38;5.83;;;3.50;;
58992;SDS011;44782;0.000;0.000;2023-11-18T11:04:54;6.20;;;4.07;;
58992;SDS011;44782;0.000;0.000;2023-11-18T11:07:12;6.00;;;3.93;;
58992;SDS011;44782;0.000;0.000;2023-11-18T11:09:29;7.77;;;4.20;;
58992;SDS011;44782;0.000;0.000;2023-11-18T11:11:54;7.87;;;4.83;;
58992;SDS011;44782;0.000;0.000;2023-11-18T11:14:20;6.57;;;4.50;;
58992;SDS011;44782;0.000;0.000;2023-11-18T11:16:42;7.23;;;4.90;;
58992;SDS011;44782;0.000;0.000;2023-11-18T11:19:00;7.03;;;4.97;;
58992;SDS011;44782;0.000;0.000;2023-11-18T11:21:26;5.33;;;4.43;;
58992;SDS011;44782;0.000;0.000;2023-11-18T11:23:50;7.13;;;4.30;;
58992;SDS011;44782;0.000;0.000;2023-11-18T11:26:50;5.17;;;3.80;;
58992;SDS011;44782;0.000;0.000;2023-11-18T11:29:27;5.87;;;3.80;;
58992;SDS011;44782;0.000;0.000;2023-11-18T11:34:27;3.87;;;3.33;;
58992;SDS011;44782;0.000;0.000;2023-11-18T11:36:46;4.50;;;2.80;;
58992;SDS011;44782;0.000;0.000;2023-11-18T11:39:06;4.97;;;3.73;;
58992;SDS011;44782;0.000;0.000;2023-11-18T11:41:29;5.67;;;3.80;;
58992;SDS011;44782;0.000;0.000;2023-11-18T11:43:49;4.13;;;3.70;;
58992;SDS011;44782;0.000;0.000;2023-11-18T11:46:05;4.60;;;3.40;;
58992;SDS011;44782;0.000;0.000;2023-11-18T11:48:25;3.60;;;2.90;;
58992;SDS011;44782;0.000;0.000;2023-11-18T11:51:05;3.70;;;3.07;;
58992;SDS011;44782;0.000;0.000;2023-11-18T11:53:33;5.70;;;3.90;;
58992;SDS011;44782;0.000;0.000;2023-11-18T11:55:54;4.10;;;3.70;;
58992;SDS011;44782;0.000;0.000;2023-11-18T11:58:26;4.60;;;3.10;;
58992;SDS011;44782;0.000;0.000;2023-11-18T12:00:52;5.33;;;3.77;;
58992;SDS011;44782;0.000;0.000;2023-11-18T12:03:09;5.93;;;3.97;;
58992;SDS011;44782;0.000;0.000;2023-11-18T12:05:27;4.50;;;4.07;;
58992;SDS011;44782;0.000;0.000;2023-11-18T12:07:43;7.07;;;4.20;;
58992;SDS011;44782;0.000;0.000;2023-11-18T12:10:01;5.80;;;4.00;;
58992;SDS011;44782;0.000;0.000;2023-11-18T12:12:21;4.23;;;3.80;;
58992;SDS011;44782;0.000;0.000;2023-11-18T12:14:54;5.67;;;4.50;;
58992;SDS011;44782;0.000;0.000;2023-11-18T12:17:15;7.10;;;4.70;;
58992;SDS011;44782;0.000;0.000;2023-11-18T12:19:37;6.10;;;4.87;;
58992;SDS011;44782;0.000;0.000;2023-11-18T12:22:02;6.57;;;5.20;;
58992;SDS011;44782;0.000;0.000;2023-11-18T12:24:27;5.47;;;4.90;;
58992;SDS011;44782;0.000;0.000;2023-11-18T12:26:44;6.10;;;4.87;;
58992;SDS011;44782;0.000;0.000;2023-11-18T12:29:05;6.73;;;5.10;;
58992;SDS011;44782;0.000;0.000;2023-11-18T12:31:45;6.40;;;5.10;;
58992;SDS011;44782;0.000;0.000;2023-11-18T12:34:01;7.23;;;4.90;;
58992;SDS011;44782;0.000;0.000;2023-11-18T12:38:56;7.27;;;5.03;;
58992;SDS011;44782;0.000;0.000;2023-11-18T12:43:47;7.73;;;4.30;;
58992;SDS011;44782;0.000;0.000;2023-11-18T12:48:23;6.23;;;4.33;;
58992;SDS011;44782;0.000;0.000;2023-11-18T12:50:42;5.00;;;4.07;;
58992;SDS011;44782;0.000;0.000;2023-11-18T12:53:00;5.87;;;4.40;;
58992;SDS011;44782;0.000;0.000;2023-11-18T12:55:16;4.77;;;3.73;;
58992;SDS011;44782;0.000;0.000;2023-11-18T12:57:34;5.70;;;3.93;;
58992;SDS011;44782;0.000;0.000;2023-11-18T12:59:53;6.63;;;3.83;;
58992;SDS011;44782;0.000;0.000;2023-11-18T13:02:10;4.67;;;4.00;;
58992;SDS011;44782;0.000;0.000;2023-11-18T13:04:34;4.90;;;3.40;;
58992;SDS011;44782;0.000;0.000;2023-11-18T13:06:50;6.40;;;3.77;;
58992;SDS011;44782;0.000;0.000;2023-11-18T13:09:06;3.63;;;3.30;;
58992;SDS011;44782;0.000;0.000;2023-11-18T13:11:24;4.40;;;3.30;;
58992;SDS011;44782;0.000;0.000;2023-11-18T13:13:40;4.03;;;3.33;;
58992;SDS011;44782;0.000;0.000;2023-11-18T13:15:57;4.20;;;3.20;;
58992;SDS011;44782;0.000;0.000;2023-11-18T13:18:13;4.87;;;3.30;;
58992;SDS011;44782;0.000;0.000;2023-11-18T13:20:29;7.03;;;3.63;;
58992;SDS011;44782;0.000;0.000;2023-11-18T13:22:48;4.50;;;3.30;;
58992;SDS011;44782;0.000;0.000;2023-11-18T13:25:04;3.40;;;3.10;;
58992;SDS011;44782;0.000;0.000;2023-11-18T13:27:20;5.73;;;3.23;;
58992;SDS011;44782;0.000;0.000;2023-11-18T13:29:38;3.30;;;2.90;;
58992;SDS011;44782;0.000;0.000;2023-11-18T13:31:54;4.40;;;3.03;;
58992;SDS011;44782;0.000;0.000;2023-11-18T13:34:12;4.17;;;3.00;;
58992;SDS011;44782;0.000;0.000;2023-11-18T13:36:29;3.33;;;2.77;;
58992;SDS011;44782;0.000;0.000;2023-11-18T13:38:47;3.97;;;2.80;;
58992;SDS011;44782;0.000;0.000;2023-11-18T13:41:04;3.40;;;3.07;;
58992;SDS011;44782;0.000;0.000;2023-11-18T13:43:20;4.30;;;2.83;;
58992;SDS011;44782;0.000;0.000;2023-11-18T13:45:37;3.30;;;3.00;;
58992;SDS011;44782;0.000;0.000;2023-11-18T13:47:55;4.60;;;3.10;;
58992;SDS011;44782;0.000;0.000;2023-11-18T13:50:12;3.13;;;2.53;;
58992;SDS011;44782;0.000;0.000;2023-11-18T13:52:29;4.17;;;2.97;;
58992;SDS011;44782;0.000;0.000;2023-11-18T13:54:46;3.27;;;2.50;;
58992;SDS011;44782;0.000;0.000;2023-11-18T13:57:02;4.33;;;2.83;;
58992;SDS011;44782;0.000;0.000;2023-11-18T13:59:19;2.87;;;2.63;;
58992;SDS011;44782;0.000;0.000;2023-11-18T14:01:34;4.83;;;2.60;;
58992;SDS011;44782;0.000;0.000;2023-11-18T14:03:52;3.57;;;2.50;;
58992;SDS011;44782;0.000;0.000;2023-11-18T14:06:09;3.30;;;2.60;;
58992;SDS011;44782;0.000;0.000;2023-11-18T14:08:28;3.27;;;2.77;;
58992;SDS011;44782;0.000;0.000;2023-11-18T14:10:44;4.00;;;2.77;;
58992;SDS011;44782;0.000;0.000;2023-11-18T14:13:04;3.27;;;2.70;;
58992;SDS011;44782;0.000;0.000;2023-11-18T14:15:28;3.50;;;2.40;;
58992;SDS011;44782;0.000;0.000;2023-11-18T14:17:44;2.67;;;2.37;;